Strona główna
METAR-TAF:

METAR-TAF

Lotnisko :

Port lotniczy Biarritz

Biarritz, Francja

Szerokość geograficzna: 43-28N, Długość geograficzna: 001-32W, wysokość: 75 m

Aktualna obserwacja pogody

Raport powstał 25 minut temu, godzina 08:30 UTC
Wiatr 4 kt od wschód, zmienny między północny wschód i wschodnio-południowy wschód
Temperatura 25°C
Wilgotność 57%
Ciśnienie 1023 hPa
Widzialność 10 km lub więcej
Brak chmur poniżej 1500 m i brak chmur cumulonimbus

METAR: LFBZ 280830Z AUTO 08004KT 040V110 CAVOK 25/16 Q1023 NOSIG

czas: 10:55 (08:55 UTC)

Prognoza

Raport powstał 3 godziny i 55 minut temu, godzina 05:00 UTC
Prognoza ważna od 28 godzina 06 UTC do 29 godzina 06 UTC
Wiatr 6 kt od południowy wschód
Widzialność 10 km lub więcej
Brak chmur poniżej 1500 m i brak chmur cumulonimbus
Stopniowe zmiany
od 28 godzina 12 UTC do 28 godzina 14 UTC
Wiatr 10 kt od północ
Stopniowe zmiany
od 28 godzina 19 UTC do 28 godzina 21 UTC
Wiatr 3 kt z kierunków zmiennych

TAF: LFBZ 280500Z 2806/2906 13006KT CAVOK BECMG 2812/2814 36010KT BECMG 2819/2821 VRB03KT

Obserwacja i prognoza pogody dla ponad 4000 lotnisk (raport METAR i TAF).

Dostępne stacje oznaczono żółtymi i czerwonymi punktami na mapie.

Najedź kursorem aby zobaczyć nazwę stacji.

Kliknij aby zobaczyć obserwacje i prognozy pogody.

Aby zmienić mapę: kliknij na zielony przycisk z czarnym krzyżykiem, aby powiększyć; na zielony przycisk z myślnikiem, aby pomniejszyć; na zielone strzałki, aby przejść do map sąsiednich.


METAR-TAF: